Time;durP1;ratioP1;P1;durP2;ratioP2;P2;SDS_P1;SDS_P2;PMS_P1;PMS_P2;Temp;Humidity;BMP_temperature;BMP_pressure;BME280_temperature;BME280_humidity;BME280_pressure;Samples;Min_cycle;Max_cycle;Signal;HPM_P1;HPM_P2
2022/03/18 00:02:01;;;;;;;16.52;4.78;;;;;;;5.01;100.00;103994.56;5033148;28;20037;-67
2022/03/18 00:04:27;;;;;;;11.57;5.40;;;;;;;5.04;100.00;103990.50;5032883;28;20026;-67
2022/03/18 00:06:54;;;;;;;14.88;4.75;;;;;;;5.00;100.00;103995.31;5031628;28;20132;-68
2022/03/18 00:09:19;;;;;;;14.35;4.68;;;;;;;4.93;100.00;103991.25;5031621;28;20513;-67
2022/03/18 00:11:45;;;;;;;11.48;4.40;;;;;;;4.90;100.00;103993.59;5033833;28;20052;-67
2022/03/18 00:14:10;;;;;;;15.05;4.72;;;;;;;4.88;100.00;103997.72;5025932;28;20030;-67
2022/03/18 00:16:35;;;;;;;12.13;4.57;;;;;;;4.87;100.00;104003.72;5032634;28;20037;-67
2022/03/18 00:19:01;;;;;;;11.60;4.50;;;;;;;4.84;100.00;104006.06;5035078;28;20029;-68
2022/03/18 00:21:27;;;;;;;10.38;3.72;;;;;;;4.92;100.00;104010.28;5033654;28;20037;-67
2022/03/18 00:23:52;;;;;;;13.75;4.40;;;;;;;5.01;100.00;104016.34;5035123;28;20025;-67
2022/03/18 00:26:18;;;;;;;11.75;4.60;;;;;;;5.00;100.00;104014.50;5032726;28;20512;-67
2022/03/18 00:28:43;;;;;;;10.48;4.10;;;;;;;4.78;100.00;104015.94;5032998;28;20030;-67
2022/03/18 00:31:09;;;;;;;18.70;4.65;;;;;;;4.71;100.00;104017.06;5033104;28;20021;-67
2022/03/18 00:33:35;;;;;;;9.75;4.20;;;;;;;4.62;100.00;104014.53;5033054;28;20029;-67
2022/03/18 00:36:01;;;;;;;14.23;4.55;;;;;;;4.60;100.00;104010.88;5035465;28;20029;-66
2022/03/18 00:38:27;;;;;;;13.63;4.10;;;;;;;4.69;100.00;104021.22;5031128;28;20036;-67
2022/03/18 00:40:55;;;;;;;14.02;4.57;;;;;;;4.76;100.00;104020.09;5034929;28;20021;-67
2022/03/18 00:43:20;;;;;;;11.40;4.05;;;;;;;4.83;100.00;104025.09;5029715;28;20025;-68
2022/03/18 00:45:46;;;;;;;14.32;4.15;;;;;;;4.78;100.00;104021.16;5034247;28;20036;-68
2022/03/18 00:53:39;;;;;;;15.60;4.20;;;;;;;4.50;100.00;104018.59;5027407;28;20056;-67
2022/03/18 00:56:04;;;;;;;14.30;4.38;;;;;;;4.54;100.00;104021.66;5034422;28;20029;-68
2022/03/18 00:58:29;;;;;;;21.45;4.00;;;;;;;4.51;100.00;104010.91;5034266;28;20029;-67
2022/03/18 01:00:55;;;;;;;10.95;4.43;;;;;;;4.50;100.00;104019.53;5031889;28;20021;-68
2022/03/18 01:03:21;;;;;;;14.60;4.43;;;;;;;4.52;100.00;104020.59;5030429;28;20053;-67
2022/03/18 01:05:46;;;;;;;9.30;4.53;;;;;;;4.47;100.00;104020.94;5034493;28;20037;-68
2022/03/18 01:08:11;;;;;;;9.35;4.30;;;;;;;4.39;100.00;104030.63;5032578;28;20037;-68
2022/03/18 01:10:37;;;;;;;13.55;4.13;;;;;;;4.24;100.00;104030.13;5033485;28;20044;-67
2022/03/18 01:13:02;;;;;;;12.20;4.68;;;;;;;4.25;100.00;104031.06;5034276;28;20109;-67
2022/03/18 01:15:28;;;;;;;7.75;4.22;;;;;;;4.26;100.00;104030.25;5033075;28;20052;-68
2022/03/18 01:17:53;;;;;;;16.73;5.57;;;;;;;4.26;100.00;104022.44;5031311;28;20040;-67
2022/03/18 01:20:19;;;;;;;11.68;3.90;;;;;;;4.27;100.00;104022.59;5030075;28;20022;-67
2022/03/18 01:22:44;;;;;;;10.90;4.18;;;;;;;4.19;100.00;104010.53;5025145;28;20032;-68
2022/03/18 01:25:09;;;;;;;20.02;4.97;;;;;;;4.18;100.00;104019.13;5033233;28;20033;-67
2022/03/18 01:27:35;;;;;;;23.52;4.78;;;;;;;4.18;100.00;104019.13;5033682;28;20025;-67
2022/03/18 01:30:00;;;;;;;12.35;4.13;;;;;;;4.17;100.00;104017.28;5032796;28;20131;-67
2022/03/18 01:32:25;;;;;;;13.35;4.30;;;;;;;4.10;100.00;104017.50;5032433;28;20025;-67
2022/03/18 01:34:51;;;;;;;11.43;4.07;;;;;;;4.03;100.00;104024.72;5032868;28;20458;-67
2022/03/18 01:37:16;;;;;;;14.13;4.68;;;;;;;4.10;100.00;104018.41;5033664;28;20021;-68
2022/03/18 01:39:41;;;;;;;15.82;4.10;;;;;;;4.00;100.00;104024.44;5032494;28;20469;-67
2022/03/18 01:42:07;;;;;;;15.13;4.20;;;;;;;3.94;100.00;104021.25;5027363;28;20112;-69
2022/03/18 01:44:43;;;;;;;11.95;4.13;;;;;;;3.93;100.00;104024.59;5031745;28;20406;-68
2022/03/18 01:47:09;;;;;;;12.38;4.63;;;;;;;3.90;100.00;104033.84;5034122;28;20029;-68
2022/03/18 01:49:35;;;;;;;11.55;4.10;;;;;;;3.87;100.00;104032.75;5030189;28;20105;-67
2022/03/18 01:52:01;;;;;;;12.63;4.45;;;;;;;3.83;100.00;104035.84;5028643;28;20041;-68
2022/03/18 01:54:45;;;;;;;14.23;4.53;;;;;;;3.83;100.00;104029.72;5028299;28;20025;-68
2022/03/18 01:57:11;;;;;;;;;;;;;;;3.84;100.00;104028.97;5026175;28;20036;-67
2022/03/18 01:59:37;;;;;;;10.13;3.95;;;;;;;3.85;100.00;104029.13;5013848;28;19913;-67
2022/03/18 02:02:03;;;;;;;14.07;3.88;;;;;;;3.88;100.00;104029.41;5030910;28;20155;-68
2022/03/18 02:04:29;;;;;;;14.35;4.40;;;;;;;3.93;100.00;104024.59;5031725;28;20025;-67
2022/03/18 02:06:55;;;;;;;13.75;4.35;;;;;;;3.91;100.00;104026.16;5031482;28;20350;-67
2022/03/18 02:09:20;;;;;;;15.10;4.20;;;;;;;3.92;100.00;104020.19;5032326;28;20037;-67
2022/03/18 02:11:46;;;;;;;9.50;3.95;;;;;;;3.96;100.00;104021.38;5031254;28;20025;-67
2022/03/18 02:14:11;;;;;;;16.50;4.75;;;;;;;4.02;100.00;104022.88;5026476;28;20037;-68
2022/03/18 02:16:39;;;;;;;11.18;5.47;;;;;;;3.97;100.00;104033.66;5032694;28;20027;-67
2022/03/18 02:19:05;;;;;;;13.07;4.38;;;;;;;3.87;100.00;104037.06;5032298;28;20049;-68
2022/03/18 02:21:31;;;;;;;12.45;4.25;;;;;;;3.82;100.00;104048.72;5031300;28;20485;-67
2022/03/18 02:23:57;;;;;;;22.08;6.93;;;;;;;3.86;100.00;104045.66;5031744;28;20056;-67
2022/03/18 02:26:23;;;;;;;12.88;4.78;;;;;;;3.76;100.00;104053.34;5024107;28;20041;-67
2022/03/18 02:28:48;;;;;;;10.02;4.32;;;;;;;3.82;100.00;104052.25;5032411;28;20076;-66
2022/03/18 02:31:14;;;;;;;12.88;4.68;;;;;;;3.78;100.00;104063.13;5032828;28;20052;-67
2022/03/18 02:33:39;;;;;;;11.20;4.07;;;;;;;3.92;100.00;104054.06;5032272;28;20028;-66
2022/03/18 02:36:05;;;;;;;11.88;4.18;;;;;;;3.99;100.00;104058.19;5029973;28;20115;-66
2022/03/18 02:38:30;;;;;;;11.60;4.20;;;;;;;3.89;100.00;104056.34;5029015;28;20017;-66
2022/03/18 02:40:55;;;;;;;16.50;4.80;;;;;;;3.87;100.00;104060.53;5030257;28;20111;-66
2022/03/18 02:43:20;;;;;;;10.70;4.40;;;;;;;3.76;100.00;104064.69;5027044;28;20040;-66
2022/03/18 02:45:46;;;;;;;12.98;4.90;;;;;;;3.69;100.00;104076.19;5031783;28;20037;-66
2022/03/18 02:48:11;;;;;;;8.88;4.03;;;;;;;3.64;100.00;104072.22;5031680;28;20045;-66
2022/03/18 02:50:37;;;;;;;11.48;4.25;;;;;;;3.61;100.00;104069.34;5032578;28;20030;-67
2022/03/18 02:53:02;;;;;;;11.88;3.88;;;;;;;3.58;100.00;104073.31;5030244;28;20164;-67
2022/03/18 02:55:27;;;;;;;13.43;4.85;;;;;;;3.59;100.00;104076.06;5021672;28;20056;-66
2022/03/18 02:57:53;;;;;;;12.40;4.55;;;;;;;3.53;100.00;104081.59;5031754;28;20030;-66
2022/03/18 03:00:18;;;;;;;6.28;3.60;;;;;;;3.45;100.00;104084.22;5032170;28;20018;-67
2022/03/18 03:02:44;;;;;;;14.07;4.30;;;;;;;3.41;100.00;104089.91;5028751;28;20061;-67
2022/03/18 03:07:59;;;;;;;9.18;4.13;;;;;;;3.46;100.00;104088.66;5035703;28;20595;-67
2022/03/18 03:10:25;;;;;;;17.17;4.22;;;;;;;3.42;100.00;104094.31;5029840;28;20111;-67
2022/03/18 03:12:51;;;;;;;13.82;4.28;;;;;;;3.34;100.00;104094.50;5036522;28;20037;-67
2022/03/18 03:15:16;;;;;;;9.70;4.35;;;;;;;3.33;100.00;104095.25;5036658;28;20139;-66
2022/03/18 03:17:41;;;;;;;13.85;4.25;;;;;;;3.35;100.00;104095.41;5035568;28;20060;-67
2022/03/18 03:20:08;;;;;;;16.27;3.80;;;;;;;3.34;100.00;104093.59;5035514;28;20347;-67
2022/03/18 03:22:34;;;;;;;12.95;4.72;;;;;;;3.31;100.00;104098.47;5036566;28;20123;-67
2022/03/18 03:25:00;;;;;;;15.63;5.05;;;;;;;3.40;100.00;104096.78;5033137;28;20080;-67
2022/03/18 03:27:31;;;;;;;9.25;4.40;;;;;;;3.40;100.00;104093.28;5033802;28;20052;-67
2022/03/18 03:30:03;;;;;;;9.13;4.10;;;;;;;3.58;100.00;104088.94;5034084;28;20029;-67
2022/03/18 03:32:29;;;;;;;14.00;4.78;;;;;;;3.52;100.00;104089.25;5034511;28;20076;-67
2022/03/18 03:34:55;;;;;;;16.17;4.57;;;;;;;3.40;100.00;104093.28;5034809;28;20059;-67
2022/03/18 03:37:21;;;;;;;13.68;4.68;;;;;;;3.37;100.00;104094.78;5033258;28;20512;-67
2022/03/18 03:39:46;;;;;;;11.23;4.15;;;;;;;3.52;100.00;104090.16;5034905;28;20097;-67
2022/03/18 03:42:12;;;;;;;9.35;5.43;;;;;;;3.45;100.00;104094.66;5034808;28;20160;-68
2022/03/18 03:44:37;;;;;;;17.77;4.45;;;;;;;3.43;100.00;104099.72;5032118;28;20465;-67
2022/03/18 03:47:02;;;;;;;15.23;4.75;;;;;;;3.43;100.00;104101.38;5034169;28;20030;-68
2022/03/18 03:49:28;;;;;;;10.48;3.63;;;;;;;3.38;100.00;104104.44;5033354;28;20037;-67
2022/03/18 03:51:53;;;;;;;15.73;4.10;;;;;;;3.30;100.00;104102.78;5032288;28;20033;-67
2022/03/18 03:54:18;;;;;;;14.55;5.55;;;;;;;3.25;100.00;104106.59;5034762;28;20508;-68
2022/03/18 03:56:44;;;;;;;14.40;4.60;;;;;;;3.17;100.00;104115.31;5028686;28;20409;-67
2022/03/18 03:59:09;;;;;;;12.05;4.45;;;;;;;3.16;100.00;104116.09;5035482;28;20100;-67
2022/03/18 04:01:34;;;;;;;12.32;4.43;;;;;;;3.16;100.00;104119.63;5033438;28;20104;-67
2022/03/18 04:04:00;;;;;;;9.43;4.30;;;;;;;3.14;100.00;104109.81;5032875;28;20083;-67
2022/03/18 04:06:25;;;;;;;13.13;6.65;;;;;;;3.17;100.00;104113.66;5032837;28;20022;-67
2022/03/18 04:08:51;;;;;;;11.98;4.28;;;;;;;3.21;100.00;104112.25;5033172;28;20033;-67
2022/03/18 04:11:16;;;;;;;10.57;4.35;;;;;;;3.14;100.00;104121.13;5028123;28;20057;-67
2022/03/18 04:13:42;;;;;;;10.85;4.95;;;;;;;3.08;100.00;104124.81;5035214;28;20064;-67
2022/03/18 04:16:07;;;;;;;14.20;5.43;;;;;;;3.08;100.00;104125.75;5034966;28;20461;-68
2022/03/18 04:18:32;;;;;;;16.92;4.88;;;;;;;3.12;100.00;104126.94;5011331;28;20029;-68
2022/03/18 04:20:58;;;;;;;10.15;4.57;;;;;;;3.07;100.00;104131.72;5034044;28;20025;-67
2022/03/18 04:23:23;;;;;;;12.65;4.45;;;;;;;3.02;100.00;104136.44;5024464;28;20034;-67
2022/03/18 04:25:51;;;;;;;9.80;4.90;;;;;;;2.99;100.00;104141.34;5032332;28;20037;-67
2022/03/18 04:28:17;;;;;;;15.50;4.95;;;;;;;3.12;100.00;104148.72;5024426;28;20056;-67
2022/03/18 04:30:42;;;;;;;8.48;3.92;;;;;;;3.25;100.00;104145.63;5025921;28;20033;-67
2022/03/18 04:33:07;;;;;;;11.57;4.55;;;;;;;3.08;100.00;104140.41;5033099;28;20026;-66
2022/03/18 04:35:33;;;;;;;13.27;4.97;;;;;;;3.03;100.00;104142.56;5033639;28;20116;-65
2022/03/18 04:37:58;;;;;;;10.43;4.68;;;;;;;3.11;100.00;104132.94;5029200;28;20056;-66
2022/03/18 04:40:23;;;;;;;10.85;4.85;;;;;;;3.16;100.00;104139.50;5035135;28;20041;-67
2022/03/18 04:42:49;;;;;;;13.00;5.07;;;;;;;3.07;100.00;104126.50;5026066;28;20026;-67
2022/03/18 04:45:16;;;;;;;10.02;4.68;;;;;;;3.04;100.00;104136.63;5030742;28;20041;-67
2022/03/18 04:47:41;;;;;;;18.33;4.75;;;;;;;2.97;100.00;104129.88;5034422;28;20033;-67
2022/03/18 04:50:07;;;;;;;9.07;4.80;;;;;;;2.97;100.00;104131.53;5034006;28;20424;-67
2022/03/18 04:52:33;;;;;;;11.63;4.65;;;;;;;2.90;100.00;104130.00;5032518;28;20080;-68
2022/03/18 04:54:58;;;;;;;9.05;4.57;;;;;;;2.83;100.00;104144.06;5034176;28;20025;-67
2022/03/18 04:57:23;;;;;;;16.58;4.55;;;;;;;2.92;100.00;104143.19;5028973;28;20029;-67
2022/03/18 04:59:54;;;;;;;9.15;4.63;;;;;;;2.79;100.00;104147.13;5027901;28;20041;-67
2022/03/18 05:02:22;;;;;;;7.00;4.20;;;;;;;2.74;100.00;104160.41;5027724;28;20021;-67
2022/03/18 05:04:48;;;;;;;10.05;4.90;;;;;;;2.72;100.00;104157.66;5030567;28;20033;-67
2022/03/18 05:07:14;;;;;;;10.55;4.50;;;;;;;2.73;100.00;104161.16;5033009;28;20056;-67
2022/03/18 05:09:41;;;;;;;11.82;4.35;;;;;;;2.75;100.00;104165.75;5033949;28;20026;-67
2022/03/18 05:12:11;;;;;;;10.52;4.55;;;;;;;2.70;100.00;104167.91;5031944;28;20109;-67
2022/03/18 05:14:38;;;;;;;12.55;4.78;;;;;;;2.65;100.00;104169.13;5033345;28;20071;-67
2022/03/18 05:17:04;;;;;;;12.68;5.18;;;;;;;2.66;100.00;104181.34;5032418;28;20029;-67
2022/03/18 05:19:30;;;;;;;11.30;4.95;;;;;;;2.63;100.00;104173.25;5027968;28;20118;-67
2022/03/18 05:21:56;;;;;;;16.48;4.72;;;;;;;2.66;100.00;104170.97;5034369;28;20021;-67
2022/03/18 05:24:21;;;;;;;12.00;5.05;;;;;;;2.90;100.00;104173.31;5024977;28;20079;-67
2022/03/18 05:26:47;;;;;;;10.13;4.85;;;;;;;2.79;100.00;104177.41;5032106;28;20037;-67
2022/03/18 05:29:14;;;;;;;17.02;5.25;;;;;;;2.74;100.00;104189.97;5032272;28;20053;-67
2022/03/18 05:31:39;;;;;;;10.15;4.93;;;;;;;2.70;100.00;104199.13;5033368;28;20091;-67
2022/03/18 05:34:05;;;;;;;8.68;4.90;;;;;;;2.74;100.00;104204.63;5031300;28;20025;-67
2022/03/18 05:36:31;;;;;;;17.90;6.35;;;;;;;2.68;100.00;104208.41;5032432;28;20065;-68
2022/03/18 05:38:56;;;;;;;13.50;5.78;;;;;;;2.65;100.00;104215.91;5031518;28;20085;-67
2022/03/18 05:41:22;;;;;;;12.45;5.93;;;;;;;2.64;100.00;104208.88;5030424;28;20386;-68
2022/03/18 05:43:47;;;;;;;10.23;5.28;;;;;;;2.69;100.00;104220.66;5032863;28;20456;-68
2022/03/18 05:46:12;;;;;;;14.85;5.32;;;;;;;2.58;100.00;104229.06;5032246;28;20200;-67
2022/03/18 05:48:38;;;;;;;13.40;5.05;;;;;;;2.56;100.00;104230.56;5032905;28;20465;-67
2022/03/18 05:51:03;;;;;;;10.80;5.32;;;;;;;2.54;100.00;104226.91;5032961;28;20037;-68
2022/03/18 05:53:29;;;;;;;20.88;6.00;;;;;;;2.52;100.00;104223.19;5033483;28;20026;-68
2022/03/18 05:58:40;;;;;;;11.90;4.80;;;;;;;2.55;100.00;104239.16;5022852;28;20087;-68
2022/03/18 06:01:05;;;;;;;19.05;5.55;;;;;;;2.57;100.00;104242.81;5028577;28;20029;-67
2022/03/18 06:03:33;;;;;;;14.27;5.70;;;;;;;2.56;100.00;104246.16;5031565;28;20029;-67
2022/03/18 06:05:58;;;;;;;12.65;5.70;;;;;;;2.66;100.00;104241.16;5030473;28;20037;-67
2022/03/18 06:13:51;;;;;;;18.65;8.40;;;;;;;2.72;100.00;104247.78;5031964;28;20091;-67
2022/03/18 06:16:17;;;;;;;33.13;13.88;;;;;;;2.68;100.00;104247.44;5030257;28;20037;-67
2022/03/18 06:18:42;;;;;;;34.10;12.05;;;;;;;2.79;100.00;104245.03;5028815;28;20040;-67
2022/03/18 06:21:08;;;;;;;41.97;10.80;;;;;;;2.75;100.00;104248.97;5033362;28;20087;-68
2022/03/18 06:23:34;;;;;;;21.20;8.93;;;;;;;2.79;100.00;104252.84;5031660;28;20021;-66
2022/03/18 06:26:01;;;;;;;23.33;10.80;;;;;;;2.79;100.00;104260.63;5034131;28;20052;-68
2022/03/18 06:28:27;;;;;;;46.63;11.75;;;;;;;2.79;100.00;104261.53;5029233;28;20129;-67
2022/03/18 06:30:52;;;;;;;49.85;12.60;;;;;;;2.86;100.00;104268.31;5024379;28;20097;-68
2022/03/18 06:33:17;;;;;;;43.90;10.60;;;;;;;2.93;100.00;104272.47;5027080;28;20029;-67
2022/03/18 06:35:43;;;;;;;51.67;11.95;;;;;;;3.02;100.00;104276.91;5025522;28;20049;-69
2022/03/18 06:38:08;;;;;;;56.42;11.68;;;;;;;2.96;100.00;104275.41;5020163;28;20520;-68
2022/03/18 06:40:34;;;;;;;42.88;11.43;;;;;;;2.98;100.00;104269.56;5026684;28;20021;-68
2022/03/18 06:42:59;;;;;;;34.33;9.63;;;;;;;3.08;100.00;104280.91;5029675;28;20135;-68
2022/03/18 06:45:25;;;;;;;30.45;11.85;;;;;;;3.27;100.00;104289.88;5030536;28;20031;-67
2022/03/18 06:47:50;;;;;;;22.63;9.30;;;;;;;3.20;100.00;104289.97;5021741;28;20037;-67
2022/03/18 06:50:16;;;;;;;21.63;9.05;;;;;;;3.20;100.00;104287.38;5023099;28;20526;-68
2022/03/18 06:52:42;;;;;;;36.13;9.68;;;;;;;3.25;100.00;104291.38;5024572;28;20120;-68
2022/03/18 06:55:07;;;;;;;35.97;9.73;;;;;;;3.42;100.00;104289.56;5017760;28;20040;-68
2022/03/18 06:57:33;;;;;;;28.05;8.38;;;;;;;3.38;100.00;104297.06;5029119;28;20160;-67
2022/03/18 06:59:58;;;;;;;28.75;8.65;;;;;;;3.41;100.00;104295.56;5027201;28;20040;-68
2022/03/18 07:02:26;;;;;;;22.63;8.98;;;;;;;3.52;100.00;104307.97;5027493;28;20112;-67
2022/03/18 07:04:51;;;;;;;25.63;8.50;;;;;;;3.66;100.00;104301.56;5026956;28;20108;-66
2022/03/18 07:07:16;;;;;;;38.17;9.20;;;;;;;3.68;100.00;104306.16;5029383;28;20159;-70
2022/03/18 07:09:42;;;;;;;83.82;11.65;;;;;;;3.75;100.00;104306.78;5031248;28;20044;-70
2022/03/18 07:12:08;;;;;;;69.20;11.02;;;;;;;3.85;100.00;104305.25;5033305;28;20025;-70
2022/03/18 07:14:33;;;;;;;87.35;10.63;;;;;;;3.92;100.00;104304.19;5031381;28;20029;-70
2022/03/18 07:19:43;;;;;;;54.92;8.55;;;;;;;4.09;100.00;104311.06;5025252;28;20381;-68
2022/03/18 07:22:08;;;;;;;49.72;9.02;;;;;;;4.16;100.00;104312.59;5026844;28;20029;-68
2022/03/18 07:24:34;;;;;;;19.50;7.68;;;;;;;4.24;100.00;104310.75;5028319;28;20038;-67
2022/03/18 07:26:59;;;;;;;18.25;7.68;;;;;;;4.29;100.00;104313.03;5031666;28;20025;-68
2022/03/18 07:29:25;;;;;;;16.02;8.35;;;;;;;4.38;100.00;104307.78;5027939;28;20029;-68
2022/03/18 07:31:54;;;;;;;18.67;6.85;;;;;;;4.45;100.00;104306.69;5026781;28;20072;-68
2022/03/18 07:34:23;;;;;;;17.05;7.20;;;;;;;4.52;100.00;104309.16;5030055;28;20048;-68
2022/03/18 07:36:49;;;;;;;20.42;7.53;;;;;;;4.60;100.00;104323.88;5025784;28;20030;-70
2022/03/18 07:39:14;;;;;;;19.00;8.80;;;;;;;4.68;100.00;104322.91;5028970;28;20083;-70
2022/03/18 07:41:39;;;;;;;13.00;7.40;;;;;;;4.78;100.00;104329.03;5028615;28;20041;-69
2022/03/18 07:44:05;;;;;;;22.65;8.50;;;;;;;4.88;100.00;104337.88;5031680;28;20027;-71
2022/03/18 07:46:30;;;;;;;18.67;7.88;;;;;;;4.96;100.00;104341.22;5032523;28;20370;-70
2022/03/18 07:48:56;;;;;;;12.77;7.07;;;;;;;5.06;100.00;104349.16;5030209;28;20092;-70
2022/03/18 07:51:21;;;;;;;16.50;6.68;;;;;;;5.17;100.00;104347.59;5022391;28;20473;-73
2022/03/18 07:53:46;;;;;;;11.35;6.97;;;;;;;5.30;100.00;104348.75;5029096;28;20018;-69
2022/03/18 07:56:12;;;;;;;14.48;7.97;;;;;;;5.42;100.00;104357.75;5028455;28;20096;-69
2022/03/18 07:58:37;;;;;;;12.07;7.03;;;;;;;5.54;100.00;104360.59;5026212;28;20026;-69
2022/03/18 08:01:05;;;;;;;11.18;6.15;;;;;;;5.70;100.00;104366.47;5031088;28;20108;-69
2022/03/18 08:03:30;;;;;;;15.50;6.18;;;;;;;5.82;100.00;104368.38;5027630;28;20434;-70
2022/03/18 08:05:56;;;;;;;10.68;5.47;;;;;;;5.94;100.00;104369.56;5029685;28;20105;-70
2022/03/18 08:08:21;;;;;;;12.52;5.50;;;;;;;6.06;100.00;104375.00;5032571;28;20049;-69
2022/03/18 08:10:46;;;;;;;11.82;5.50;;;;;;;6.20;100.00;104374.59;5022754;28;20048;-69
2022/03/18 08:13:12;;;;;;;12.05;5.57;;;;;;;6.32;100.00;104381.72;5033574;28;20041;-69
2022/03/18 08:15:39;;;;;;;13.45;5.25;;;;;;;6.38;100.00;104380.56;5021274;28;20447;-69
2022/03/18 08:18:05;;;;;;;12.55;5.03;;;;;;;6.44;100.00;104389.75;5030247;28;20061;-69
2022/03/18 08:20:30;;;;;;;8.65;4.45;;;;;;;6.54;100.00;104393.34;5028413;28;20053;-70
2022/03/18 08:22:56;;;;;;;17.98;5.35;;;;;;;6.70;100.00;104397.34;5020884;28;20040;-69
2022/03/18 08:25:21;;;;;;;14.13;5.10;;;;;;;6.78;100.00;104403.28;5016009;28;20025;-69
2022/03/18 08:27:49;;;;;;;16.08;5.00;;;;;;;6.85;100.00;104395.19;5019815;28;20026;-69
2022/03/18 08:30:15;;;;;;;13.60;4.90;;;;;;;7.06;100.00;104399.69;5033513;28;20041;-70
2022/03/18 08:32:40;;;;;;;13.95;4.20;;;;;;;7.21;100.00;104397.50;5033899;28;20036;-72
2022/03/18 08:35:07;;;;;;;19.23;4.57;;;;;;;7.31;100.00;104396.66;5034509;28;20036;-72
2022/03/18 08:40:17;;;;;;;13.98;4.93;;;;;;;7.37;100.00;104405.03;5029626;28;20067;-72
2022/03/18 08:42:42;;;;;;;8.73;4.40;;;;;;;7.48;100.00;104399.81;5035609;28;20061;-71
2022/03/18 08:45:09;;;;;;;19.58;4.72;;;;;;;7.53;100.00;104399.41;5035134;28;20071;-72
2022/03/18 08:47:35;;;;;;;13.43;4.78;;;;;;;7.62;100.00;104407.16;5035413;28;20030;-72
2022/03/18 08:50:00;;;;;;;19.90;4.95;;;;;;;7.62;100.00;104407.16;5033836;28;20071;-72
2022/03/18 08:52:26;;;;;;;11.63;4.80;;;;;;;7.64;100.00;104416.06;5035511;28;20032;-72
2022/03/18 08:54:51;;;;;;;14.38;4.90;;;;;;;7.70;100.00;104421.81;5032201;28;20375;-72
2022/03/18 08:57:17;;;;;;;15.90;4.93;;;;;;;7.78;100.00;104418.97;5035253;28;20033;-72
2022/03/18 08:59:43;;;;;;;13.18;4.55;;;;;;;7.90;100.00;104422.63;5033788;28;20021;-73
2022/03/18 09:02:09;;;;;;;14.07;4.50;;;;;;;8.12;100.00;104421.84;5026918;28;20056;-72
2022/03/18 09:04:34;;;;;;;16.40;5.38;;;;;;;8.32;100.00;104429.66;5029196;28;20037;-71
2022/03/18 09:07:00;;;;;;;14.65;4.47;;;;;;;8.53;100.00;104435.84;5034396;28;20048;-72
2022/03/18 09:09:25;;;;;;;12.32;4.65;;;;;;;8.65;100.00;104432.38;5031377;28;20031;-72
2022/03/18 09:11:50;;;;;;;15.35;4.60;;;;;;;8.83;100.00;104428.66;5029374;28;20029;-72
2022/03/18 09:14:16;;;;;;;19.08;4.97;;;;;;;9.05;100.00;104435.66;5030945;28;20384;-72
2022/03/18 09:16:41;;;;;;;15.85;5.10;;;;;;;9.37;100.00;104432.97;5030519;28;20426;-72
2022/03/18 09:19:07;;;;;;;12.48;5.32;;;;;;;9.58;100.00;104431.09;5029583;28;20453;-71
2022/03/18 09:21:34;;;;;;;18.05;5.43;;;;;;;9.74;100.00;104433.22;5032419;28;20028;-73
2022/03/18 09:24:00;;;;;;;14.82;4.88;;;;;;;9.98;99.49;104438.53;5034661;28;20048;-71
2022/03/18 09:26:26;;;;;;;15.70;4.75;;;;;;;10.06;99.14;104442.69;5032690;28;20025;-71
2022/03/18 09:28:52;;;;;;;16.75;5.38;;;;;;;10.12;99.92;104440.53;5033546;28;20535;-71
2022/03/18 09:31:18;;;;;;;12.77;5.28;;;;;;;9.98;99.86;104454.34;5034993;28;20037;-70
2022/03/18 09:33:43;;;;;;;10.10;4.40;;;;;;;10.23;100.00;104456.25;5031761;28;20021;-71
2022/03/18 09:36:14;;;;;;;13.73;4.95;;;;;;;10.53;98.65;104462.03;5030901;28;20500;-70
2022/03/18 09:38:40;;;;;;;20.05;5.78;;;;;;;10.85;97.99;104455.59;5025774;28;20025;-70
2022/03/18 09:41:07;;;;;;;14.60;4.80;;;;;;;11.02;95.65;104464.75;5025325;28;20073;-72
2022/03/18 09:43:34;;;;;;;14.52;4.32;;;;;;;11.39;93.58;104470.03;5026898;28;20108;-72
2022/03/18 09:46:04;;;;;;;11.35;4.20;;;;;;;11.80;91.91;104474.69;5030702;28;20030;-71
2022/03/18 09:48:31;;;;;;;15.40;4.90;;;;;;;12.16;89.76;104469.25;5026675;28;20046;-71
2022/03/18 09:50:57;;;;;;;15.80;4.70;;;;;;;12.30;89.62;104468.44;5028702;28;20465;-71
2022/03/18 09:53:22;;;;;;;13.00;5.40;;;;;;;12.28;88.89;104473.63;5026491;28;20058;-71
2022/03/18 09:55:51;;;;;;;12.32;4.93;;;;;;;12.45;89.79;104479.13;5031866;28;20036;-71
2022/03/18 09:58:16;;;;;;;14.02;4.75;;;;;;;12.43;89.55;104476.41;5016908;28;20033;-71
2022/03/18 10:00:42;;;;;;;14.75;5.07;;;;;;;12.72;88.83;104479.16;5021501;28;20466;-71
2022/03/18 10:03:13;;;;;;;21.58;5.15;;;;;;;12.95;88.76;104480.66;5030480;28;20049;-71
2022/03/18 10:05:59;;;;;;;16.77;5.10;;;;;;;12.91;88.12;104473.34;5029689;28;20037;-74
2022/03/18 10:08:25;;;;;;;15.20;4.70;;;;;;;12.99;86.98;104477.41;5026267;28;20469;-73
2022/03/18 10:10:51;;;;;;;11.77;4.88;;;;;;;12.82;85.26;104471.94;5026731;28;20022;-72
2022/03/18 10:13:18;;;;;;;21.80;5.22;;;;;;;13.07;88.60;104470.88;5022078;28;20025;-71
2022/03/18 10:15:44;;;;;;;16.08;5.30;;;;;;;13.24;86.43;104474.63;5019745;28;20090;-71
2022/03/18 10:18:14;;;;;;;16.65;5.15;;;;;;;13.27;86.32;104479.22;5031650;28;20021;-72
2022/03/18 10:20:42;;;;;;;13.63;5.60;;;;;;;13.12;85.44;104469.47;5033357;28;20500;-72
2022/03/18 10:23:16;;;;;;;17.13;4.63;;;;;;;13.57;84.61;104482.00;5032119;28;20083;-71
2022/03/18 10:25:51;;;;;;;10.68;4.50;;;;;;;13.99;84.44;104480.19;5023639;28;20074;-73
2022/03/18 10:28:44;;;;;;;10.82;4.00;;;;;;;14.47;81.82;104470.69;5031836;28;20033;-71
2022/03/18 10:31:16;;;;;;;15.55;4.80;;;;;;;14.52;80.63;104472.69;5033430;28;20034;-71
2022/03/18 10:39:26;;;;;;;12.18;4.10;;;;;;;15.15;76.19;104477.25;5029296;28;20080;-71
2022/03/18 10:41:52;;;;;;;15.80;4.22;;;;;;;15.13;76.29;104475.34;5013870;28;20033;-71
2022/03/18 10:44:18;;;;;;;8.27;3.72;;;;;;;15.17;76.47;104477.34;5033476;28;20536;-71
2022/03/18 10:46:44;;;;;;;8.77;4.18;;;;;;;15.55;76.14;104480.28;5032990;28;20029;-71
2022/03/18 10:49:10;;;;;;;7.00;3.50;;;;;;;15.88;73.69;104480.28;5032454;28;20512;-71
2022/03/18 10:51:36;;;;;;;11.98;4.20;;;;;;;16.23;70.91;104473.25;5032809;28;20052;-71
2022/03/18 10:54:02;;;;;;;7.68;3.95;;;;;;;16.20;70.72;104479.31;5032395;28;20023;-71
2022/03/18 10:56:27;;;;;;;11.13;4.18;;;;;;;16.17;71.59;104480.06;5033173;28;20393;-70
2022/03/18 10:58:52;;;;;;;10.30;4.00;;;;;;;16.09;71.24;104485.81;5033250;28;20029;-71
2022/03/18 11:01:23;;;;;;;13.48;4.07;;;;;;;16.31;70.61;104490.50;5031602;28;20083;-70
2022/03/18 11:03:48;;;;;;;9.85;4.05;;;;;;;16.72;68.90;104486.34;5031362;28;20049;-70
2022/03/18 11:06:16;;;;;;;13.70;4.60;;;;;;;16.85;68.58;104482.56;5031512;28;20072;-70
2022/03/18 11:08:47;;;;;;;11.43;4.28;;;;;;;16.90;68.03;104486.41;5032559;28;20030;-71
2022/03/18 11:11:15;;;;;;;12.15;3.85;;;;;;;16.77;64.64;104484.84;5031620;28;20056;-71
2022/03/18 11:13:50;;;;;;;8.00;3.63;;;;;;;17.05;66.33;104490.63;5031357;28;20031;-71
2022/03/18 11:16:25;;;;;;;8.98;4.32;;;;;;;16.86;66.83;104490.59;5032419;28;20040;-70
2022/03/18 11:18:51;;;;;;;9.15;3.88;;;;;;;17.47;65.36;104486.44;5031536;28;20030;-69
2022/03/18 11:21:18;;;;;;;11.13;3.97;;;;;;;18.06;61.09;104489.06;5030893;28;20037;-70
2022/03/18 11:23:45;;;;;;;13.90;3.85;;;;;;;18.38;61.64;104484.25;5032372;28;20068;-70
2022/03/18 11:26:14;;;;;;;11.60;4.35;;;;;;;17.77;61.60;104486.00;5034304;28;20021;-70
2022/03/18 11:28:40;;;;;;;8.25;4.00;;;;;;;17.92;61.91;104500.88;5036844;28;20021;-69
2022/03/18 11:31:08;;;;;;;17.48;4.60;;;;;;;17.85;58.55;104489.91;5036799;28;20034;-70
2022/03/18 11:33:34;;;;;;;9.43;4.63;;;;;;;18.10;60.95;104491.03;5036830;28;20095;-70
2022/03/18 11:36:10;;;;;;;8.63;3.55;;;;;;;18.55;57.70;104492.94;5034360;28;20065;-70
2022/03/18 11:38:57;;;;;;;11.27;3.92;;;;;;;19.09;56.64;104495.16;5035660;28;20033;-70
2022/03/18 11:41:49;;;;;;;9.48;3.78;;;;;;;18.99;56.96;104487.63;5032791;28;20108;-70